sensor_id;sensor_type;location;lat;lon;timestamp;P1;durP1;ratioP1;P2;durP2;ratioP2
8986;SDS011;4529;51.360;12.474;2023-03-03T00:00:27;23.80;;;9.67;;
8986;SDS011;4529;51.360;12.474;2023-03-03T00:05:31;20.53;;;9.70;;
8986;SDS011;4529;51.360;12.474;2023-03-03T00:10:40;18.90;;;8.63;;
8986;SDS011;4529;51.360;12.474;2023-03-03T00:15:44;19.20;;;8.93;;
8986;SDS011;4529;51.360;12.474;2023-03-03T00:20:48;16.80;;;8.53;;
8986;SDS011;4529;51.360;12.474;2023-03-03T00:25:51;18.33;;;8.13;;
8986;SDS011;4529;51.360;12.474;2023-03-03T00:30:56;16.87;;;7.23;;
8986;SDS011;4529;51.360;12.474;2023-03-03T00:36:45;17.93;;;7.37;;
8986;SDS011;4529;51.360;12.474;2023-03-03T00:41:24;18.93;;;8.10;;
8986;SDS011;4529;51.360;12.474;2023-03-03T00:46:30;15.50;;;7.17;;
8986;SDS011;4529;51.360;12.474;2023-03-03T00:51:34;16.67;;;7.03;;
8986;SDS011;4529;51.360;12.474;2023-03-03T00:56:38;15.87;;;7.03;;
8986;SDS011;4529;51.360;12.474;2023-03-03T01:01:42;16.53;;;6.57;;
8986;SDS011;4529;51.360;12.474;2023-03-03T01:06:45;15.27;;;6.53;;
8986;SDS011;4529;51.360;12.474;2023-03-03T01:11:49;13.97;;;6.67;;
8986;SDS011;4529;51.360;12.474;2023-03-03T01:16:52;15.67;;;6.17;;
8986;SDS011;4529;51.360;12.474;2023-03-03T01:21:56;16.57;;;6.90;;
8986;SDS011;4529;51.360;12.474;2023-03-03T01:27:00;13.40;;;6.57;;
8986;SDS011;4529;51.360;12.474;2023-03-03T01:32:04;12.53;;;6.63;;
8986;SDS011;4529;51.360;12.474;2023-03-03T01:37:08;15.33;;;6.53;;
8986;SDS011;4529;51.360;12.474;2023-03-03T01:42:12;15.73;;;6.77;;
8986;SDS011;4529;51.360;12.474;2023-03-03T01:47:20;13.43;;;6.03;;
8986;SDS011;4529;51.360;12.474;2023-03-03T01:52:24;13.17;;;6.27;;
8986;SDS011;4529;51.360;12.474;2023-03-03T01:57:28;13.00;;;5.63;;
8986;SDS011;4529;51.360;12.474;2023-03-03T02:02:33;16.70;;;6.60;;
8986;SDS011;4529;51.360;12.474;2023-03-03T02:07:36;12.57;;;6.30;;
8986;SDS011;4529;51.360;12.474;2023-03-03T02:12:50;14.07;;;6.23;;
8986;SDS011;4529;51.360;12.474;2023-03-03T02:17:56;12.57;;;6.00;;
8986;SDS011;4529;51.360;12.474;2023-03-03T02:28:33;12.77;;;6.43;;
8986;SDS011;4529;51.360;12.474;2023-03-03T02:33:36;10.57;;;5.57;;
8986;SDS011;4529;51.360;12.474;2023-03-03T02:38:47;9.47;;;5.63;;
8986;SDS011;4529;51.360;12.474;2023-03-03T02:44:16;12.17;;;6.03;;
8986;SDS011;4529;51.360;12.474;2023-03-03T02:49:23;14.90;;;6.80;;
8986;SDS011;4529;51.360;12.474;2023-03-03T02:54:26;10.97;;;5.50;;
8986;SDS011;4529;51.360;12.474;2023-03-03T02:59:29;12.33;;;5.87;;
8986;SDS011;4529;51.360;12.474;2023-03-03T03:04:32;9.97;;;5.50;;
8986;SDS011;4529;51.360;12.474;2023-03-03T03:09:36;11.83;;;5.60;;
8986;SDS011;4529;51.360;12.474;2023-03-03T03:14:39;12.70;;;5.90;;
8986;SDS011;4529;51.360;12.474;2023-03-03T03:19:43;10.73;;;5.63;;
8986;SDS011;4529;51.360;12.474;2023-03-03T03:24:47;11.37;;;6.10;;
8986;SDS011;4529;51.360;12.474;2023-03-03T03:29:51;9.67;;;5.20;;
8986;SDS011;4529;51.360;12.474;2023-03-03T03:34:55;13.07;;;6.30;;
8986;SDS011;4529;51.360;12.474;2023-03-03T03:39:59;10.53;;;5.40;;
8986;SDS011;4529;51.360;12.474;2023-03-03T03:45:02;11.40;;;5.67;;
8986;SDS011;4529;51.360;12.474;2023-03-03T03:50:06;10.60;;;5.57;;
8986;SDS011;4529;51.360;12.474;2023-03-03T03:55:09;10.07;;;5.67;;
8986;SDS011;4529;51.360;12.474;2023-03-03T04:00:13;15.17;;;6.70;;
8986;SDS011;4529;51.360;12.474;2023-03-03T04:05:16;10.70;;;5.47;;
8986;SDS011;4529;51.360;12.474;2023-03-03T04:10:19;11.83;;;5.97;;
8986;SDS011;4529;51.360;12.474;2023-03-03T04:15:23;16.97;;;6.23;;
8986;SDS011;4529;51.360;12.474;2023-03-03T04:20:26;13.00;;;6.53;;
8986;SDS011;4529;51.360;12.474;2023-03-03T04:25:30;16.83;;;6.37;;
8986;SDS011;4529;51.360;12.474;2023-03-03T04:30:34;11.80;;;6.43;;
8986;SDS011;4529;51.360;12.474;2023-03-03T04:35:41;12.37;;;6.30;;
8986;SDS011;4529;51.360;12.474;2023-03-03T04:40:45;13.70;;;6.37;;
8986;SDS011;4529;51.360;12.474;2023-03-03T04:45:49;10.20;;;5.50;;
8986;SDS011;4529;51.360;12.474;2023-03-03T04:50:53;11.53;;;5.67;;
8986;SDS011;4529;51.360;12.474;2023-03-03T04:55:57;11.03;;;6.33;;
8986;SDS011;4529;51.360;12.474;2023-03-03T05:01:01;10.93;;;5.50;;
8986;SDS011;4529;51.360;12.474;2023-03-03T05:06:05;12.33;;;6.40;;
8986;SDS011;4529;51.360;12.474;2023-03-03T05:11:08;12.37;;;6.20;;
8986;SDS011;4529;51.360;12.474;2023-03-03T05:16:12;12.57;;;6.07;;
8986;SDS011;4529;51.360;12.474;2023-03-03T05:21:16;9.53;;;5.53;;
8986;SDS011;4529;51.360;12.474;2023-03-03T05:26:20;12.33;;;6.37;;
8986;SDS011;4529;51.360;12.474;2023-03-03T05:31:25;11.33;;;6.03;;
8986;SDS011;4529;51.360;12.474;2023-03-03T05:36:28;10.40;;;5.70;;
8986;SDS011;4529;51.360;12.474;2023-03-03T05:41:32;10.43;;;5.60;;
8986;SDS011;4529;51.360;12.474;2023-03-03T05:46:36;9.90;;;5.30;;
8986;SDS011;4529;51.360;12.474;2023-03-03T05:51:39;10.30;;;5.10;;
8986;SDS011;4529;51.360;12.474;2023-03-03T05:56:43;8.77;;;4.97;;
8986;SDS011;4529;51.360;12.474;2023-03-03T06:01:46;6.17;;;3.80;;
8986;SDS011;4529;51.360;12.474;2023-03-03T06:06:49;9.43;;;4.30;;
8986;SDS011;4529;51.360;12.474;2023-03-03T06:11:53;7.97;;;4.10;;
8986;SDS011;4529;51.360;12.474;2023-03-03T06:16:57;8.53;;;4.27;;
8986;SDS011;4529;51.360;12.474;2023-03-03T06:22:01;6.87;;;4.10;;
8986;SDS011;4529;51.360;12.474;2023-03-03T06:27:05;8.10;;;4.57;;
8986;SDS011;4529;51.360;12.474;2023-03-03T06:32:10;8.30;;;4.10;;
8986;SDS011;4529;51.360;12.474;2023-03-03T06:37:14;8.00;;;4.17;;
8986;SDS011;4529;51.360;12.474;2023-03-03T06:42:18;6.40;;;4.13;;
8986;SDS011;4529;51.360;12.474;2023-03-03T06:47:21;8.80;;;4.57;;
8986;SDS011;4529;51.360;12.474;2023-03-03T06:52:25;9.80;;;5.33;;
8986;SDS011;4529;51.360;12.474;2023-03-03T06:57:31;12.03;;;5.77;;
8986;SDS011;4529;51.360;12.474;2023-03-03T07:02:33;10.30;;;5.33;;
8986;SDS011;4529;51.360;12.474;2023-03-03T07:07:38;10.70;;;5.90;;
8986;SDS011;4529;51.360;12.474;2023-03-03T07:12:42;10.43;;;5.60;;
8986;SDS011;4529;51.360;12.474;2023-03-03T07:17:51;10.27;;;5.90;;
8986;SDS011;4529;51.360;12.474;2023-03-03T07:22:53;12.90;;;5.73;;
8986;SDS011;4529;51.360;12.474;2023-03-03T07:27:59;9.63;;;5.07;;
8986;SDS011;4529;51.360;12.474;2023-03-03T07:33:23;12.67;;;6.07;;
8986;SDS011;4529;51.360;12.474;2023-03-03T07:38:39;10.87;;;6.37;;
8986;SDS011;4529;51.360;12.474;2023-03-03T07:43:50;10.13;;;6.03;;
8986;SDS011;4529;51.360;12.474;2023-03-03T07:48:55;12.10;;;6.60;;
8986;SDS011;4529;51.360;12.474;2023-03-03T08:04:51;11.07;;;6.90;;
8986;SDS011;4529;51.360;12.474;2023-03-03T08:09:59;12.87;;;6.67;;
8986;SDS011;4529;51.360;12.474;2023-03-03T08:15:16;2.33;;;2.13;;
8986;SDS011;4529;51.360;12.474;2023-03-03T08:25:50;1.73;;;1.30;;
8986;SDS011;4529;51.360;12.474;2023-03-03T08:30:53;1.40;;;1.10;;
8986;SDS011;4529;51.360;12.474;2023-03-03T08:35:56;2.00;;;1.63;;
8986;SDS011;4529;51.360;12.474;2023-03-03T08:41:00;8.73;;;4.93;;
8986;SDS011;4529;51.360;12.474;2023-03-03T08:46:05;10.40;;;5.57;;
8986;SDS011;4529;51.360;12.474;2023-03-03T08:51:08;11.90;;;6.23;;
8986;SDS011;4529;51.360;12.474;2023-03-03T08:56:12;11.47;;;6.93;;
8986;SDS011;4529;51.360;12.474;2023-03-03T09:01:16;8.60;;;5.70;;
8986;SDS011;4529;51.360;12.474;2023-03-03T09:06:20;8.83;;;5.33;;
8986;SDS011;4529;51.360;12.474;2023-03-03T09:11:24;7.03;;;5.07;;
8986;SDS011;4529;51.360;12.474;2023-03-03T09:16:29;7.33;;;4.60;;
8986;SDS011;4529;51.360;12.474;2023-03-03T09:21:32;8.77;;;4.93;;
8986;SDS011;4529;51.360;12.474;2023-03-03T09:31:51;9.27;;;5.60;;
8986;SDS011;4529;51.360;12.474;2023-03-03T09:42:48;11.07;;;6.03;;
8986;SDS011;4529;51.360;12.474;2023-03-03T09:47:59;12.00;;;5.87;;
8986;SDS011;4529;51.360;12.474;2023-03-03T09:58:17;11.50;;;5.57;;
8986;SDS011;4529;51.360;12.474;2023-03-03T10:19:32;11.73;;;7.00;;
8986;SDS011;4529;51.360;12.474;2023-03-03T10:24:37;12.00;;;6.43;;
8986;SDS011;4529;51.360;12.474;2023-03-03T10:40:49;10.57;;;6.43;;
8986;SDS011;4529;51.360;12.474;2023-03-03T10:52:05;12.20;;;6.87;;
8986;SDS011;4529;51.360;12.474;2023-03-03T10:57:35;11.83;;;6.80;;
8986;SDS011;4529;51.360;12.474;2023-03-03T11:03:26;11.23;;;6.50;;
8986;SDS011;4529;51.360;12.474;2023-03-03T11:08:40;11.40;;;6.17;;
8986;SDS011;4529;51.360;12.474;2023-03-03T11:19:25;17.13;;;7.33;;
8986;SDS011;4529;51.360;12.474;2023-03-03T11:24:32;14.30;;;6.90;;
8986;SDS011;4529;51.360;12.474;2023-03-03T11:30:00;15.47;;;7.20;;
8986;SDS011;4529;51.360;12.474;2023-03-03T11:35:34;17.07;;;8.30;;
8986;SDS011;4529;51.360;12.474;2023-03-03T11:45:53;16.00;;;8.20;;
8986;SDS011;4529;51.360;12.474;2023-03-03T11:51:01;16.83;;;8.63;;
8986;SDS011;4529;51.360;12.474;2023-03-03T12:12:47;14.23;;;6.97;;
8986;SDS011;4529;51.360;12.474;2023-03-03T12:28:56;15.57;;;7.33;;
8986;SDS011;4529;51.360;12.474;2023-03-03T12:34:23;16.40;;;8.07;;
8986;SDS011;4529;51.360;12.474;2023-03-03T12:39:28;15.10;;;7.47;;
8986;SDS011;4529;51.360;12.474;2023-03-03T12:50:42;13.53;;;7.03;;
8986;SDS011;4529;51.360;12.474;2023-03-03T12:56:03;14.80;;;6.97;;
8986;SDS011;4529;51.360;12.474;2023-03-03T13:01:19;12.47;;;6.97;;
8986;SDS011;4529;51.360;12.474;2023-03-03T13:17:22;15.07;;;8.13;;
8986;SDS011;4529;51.360;12.474;2023-03-03T13:22:36;16.20;;;7.67;;
8986;SDS011;4529;51.360;12.474;2023-03-03T13:27:40;17.57;;;8.60;;
8986;SDS011;4529;51.360;12.474;2023-03-03T13:32:46;18.13;;;10.00;;
8986;SDS011;4529;51.360;12.474;2023-03-03T13:37:53;19.43;;;9.83;;
8986;SDS011;4529;51.360;12.474;2023-03-03T13:43:04;21.07;;;10.47;;
8986;SDS011;4529;51.360;12.474;2023-03-03T13:48:28;16.67;;;9.60;;
8986;SDS011;4529;51.360;12.474;2023-03-03T13:58:56;17.53;;;9.97;;
8986;SDS011;4529;51.360;12.474;2023-03-03T14:09:54;17.33;;;9.30;;
8986;SDS011;4529;51.360;12.474;2023-03-03T14:14:39;19.00;;;9.67;;
8986;SDS011;4529;51.360;12.474;2023-03-03T14:19:43;23.60;;;12.97;;
8986;SDS011;4529;51.360;12.474;2023-03-03T14:25:06;27.80;;;12.73;;
8986;SDS011;4529;51.360;12.474;2023-03-03T14:30:45;30.27;;;13.93;;
8986;SDS011;4529;51.360;12.474;2023-03-03T14:35:23;19.43;;;9.43;;
8986;SDS011;4529;51.360;12.474;2023-03-03T14:40:31;20.13;;;10.07;;
8986;SDS011;4529;51.360;12.474;2023-03-03T14:45:38;18.87;;;10.30;;
8986;SDS011;4529;51.360;12.474;2023-03-03T14:50:48;16.33;;;9.33;;
8986;SDS011;4529;51.360;12.474;2023-03-03T14:55:54;16.63;;;9.40;;
8986;SDS011;4529;51.360;12.474;2023-03-03T15:01:12;16.03;;;8.23;;
8986;SDS011;4529;51.360;12.474;2023-03-03T15:06:26;15.90;;;8.83;;
8986;SDS011;4529;51.360;12.474;2023-03-03T15:11:32;19.20;;;9.17;;
8986;SDS011;4529;51.360;12.474;2023-03-03T15:16:34;17.37;;;9.37;;
8986;SDS011;4529;51.360;12.474;2023-03-03T15:21:39;19.97;;;10.00;;
8986;SDS011;4529;51.360;12.474;2023-03-03T15:26:46;20.97;;;9.73;;
8986;SDS011;4529;51.360;12.474;2023-03-03T15:43:02;15.07;;;8.07;;
8986;SDS011;4529;51.360;12.474;2023-03-03T15:53:51;14.27;;;7.30;;
8986;SDS011;4529;51.360;12.474;2023-03-03T16:05:33;15.40;;;8.43;;
8986;SDS011;4529;51.360;12.474;2023-03-03T16:31:33;35.27;;;14.43;;
8986;SDS011;4529;51.360;12.474;2023-03-03T16:37:26;30.97;;;13.83;;
8986;SDS011;4529;51.360;12.474;2023-03-03T16:42:23;29.93;;;15.60;;
8986;SDS011;4529;51.360;12.474;2023-03-03T16:47:41;16.57;;;8.57;;
8986;SDS011;4529;51.360;12.474;2023-03-03T16:58:25;13.33;;;8.10;;
8986;SDS011;4529;51.360;12.474;2023-03-03T17:03:59;15.07;;;9.00;;
8986;SDS011;4529;51.360;12.474;2023-03-03T17:14:52;17.20;;;10.10;;
8986;SDS011;4529;51.360;12.474;2023-03-03T17:25:43;11.10;;;7.17;;
8986;SDS011;4529;51.360;12.474;2023-03-03T17:30:51;20.73;;;9.37;;
8986;SDS011;4529;51.360;12.474;2023-03-03T17:41:45;15.87;;;8.50;;
8986;SDS011;4529;51.360;12.474;2023-03-03T17:46:52;13.20;;;7.63;;
8986;SDS011;4529;51.360;12.474;2023-03-03T17:52:04;14.63;;;7.97;;
8986;SDS011;4529;51.360;12.474;2023-03-03T17:57:46;14.00;;;7.73;;
8986;SDS011;4529;51.360;12.474;2023-03-03T18:08:46;13.83;;;8.10;;
8986;SDS011;4529;51.360;12.474;2023-03-03T18:35:40;19.27;;;11.17;;
8986;SDS011;4529;51.360;12.474;2023-03-03T18:40:31;20.53;;;12.37;;
8986;SDS011;4529;51.360;12.474;2023-03-03T18:45:45;20.23;;;12.13;;
8986;SDS011;4529;51.360;12.474;2023-03-03T18:50:44;25.03;;;13.87;;
8986;SDS011;4529;51.360;12.474;2023-03-03T18:55:51;18.30;;;10.93;;
8986;SDS011;4529;51.360;12.474;2023-03-03T19:00:55;17.83;;;10.83;;
8986;SDS011;4529;51.360;12.474;2023-03-03T19:05:58;18.77;;;10.33;;
8986;SDS011;4529;51.360;12.474;2023-03-03T19:11:03;21.37;;;11.27;;
8986;SDS011;4529;51.360;12.474;2023-03-03T19:21:30;20.17;;;10.50;;
8986;SDS011;4529;51.360;12.474;2023-03-03T19:26:39;17.23;;;9.03;;
8986;SDS011;4529;51.360;12.474;2023-03-03T19:42:40;12.97;;;7.90;;
8986;SDS011;4529;51.360;12.474;2023-03-03T19:47:45;16.13;;;8.40;;
8986;SDS011;4529;51.360;12.474;2023-03-03T19:52:59;14.07;;;7.90;;
8986;SDS011;4529;51.360;12.474;2023-03-03T20:09:25;13.00;;;7.30;;
8986;SDS011;4529;51.360;12.474;2023-03-03T20:19:46;13.87;;;7.40;;
8986;SDS011;4529;51.360;12.474;2023-03-03T20:36:16;10.77;;;6.73;;
8986;SDS011;4529;51.360;12.474;2023-03-03T20:41:33;9.47;;;5.73;;
8986;SDS011;4529;51.360;12.474;2023-03-03T20:52:46;10.63;;;6.10;;
8986;SDS011;4529;51.360;12.474;2023-03-03T21:03:31;10.00;;;6.40;;
8986;SDS011;4529;51.360;12.474;2023-03-03T21:08:41;8.43;;;5.87;;
8986;SDS011;4529;51.360;12.474;2023-03-03T21:13:54;10.87;;;6.87;;
8986;SDS011;4529;51.360;12.474;2023-03-03T21:18:58;11.03;;;6.80;;
8986;SDS011;4529;51.360;12.474;2023-03-03T21:24:01;10.33;;;6.00;;
8986;SDS011;4529;51.360;12.474;2023-03-03T21:29:04;12.20;;;6.40;;
8986;SDS011;4529;51.360;12.474;2023-03-03T21:34:18;9.47;;;6.20;;
8986;SDS011;4529;51.360;12.474;2023-03-03T21:39:36;12.07;;;6.70;;
8986;SDS011;4529;51.360;12.474;2023-03-03T21:44:45;11.73;;;7.13;;
8986;SDS011;4529;51.360;12.474;2023-03-03T21:49:49;14.77;;;7.80;;
8986;SDS011;4529;51.360;12.474;2023-03-03T21:54:51;12.33;;;7.73;;
8986;SDS011;4529;51.360;12.474;2023-03-03T21:59:55;12.10;;;7.10;;
8986;SDS011;4529;51.360;12.474;2023-03-03T22:04:58;12.03;;;7.63;;
8986;SDS011;4529;51.360;12.474;2023-03-03T22:10:03;14.70;;;8.77;;
8986;SDS011;4529;51.360;12.474;2023-03-03T22:15:06;14.13;;;8.20;;
8986;SDS011;4529;51.360;12.474;2023-03-03T22:20:10;15.23;;;8.80;;
8986;SDS011;4529;51.360;12.474;2023-03-03T22:25:14;16.60;;;9.00;;
8986;SDS011;4529;51.360;12.474;2023-03-03T22:30:17;15.43;;;8.63;;
8986;SDS011;4529;51.360;12.474;2023-03-03T22:35:21;15.07;;;9.17;;
8986;SDS011;4529;51.360;12.474;2023-03-03T22:40:24;15.63;;;9.20;;
8986;SDS011;4529;51.360;12.474;2023-03-03T22:45:28;17.90;;;9.80;;
8986;SDS011;4529;51.360;12.474;2023-03-03T22:50:31;19.00;;;9.93;;
8986;SDS011;4529;51.360;12.474;2023-03-03T22:55:34;19.23;;;10.10;;
8986;SDS011;4529;51.360;12.474;2023-03-03T23:00:38;16.47;;;9.83;;
8986;SDS011;4529;51.360;12.474;2023-03-03T23:05:42;14.60;;;9.40;;
8986;SDS011;4529;51.360;12.474;2023-03-03T23:10:46;15.00;;;8.83;;
8986;SDS011;4529;51.360;12.474;2023-03-03T23:15:50;12.60;;;7.47;;
8986;SDS011;4529;51.360;12.474;2023-03-03T23:20:55;10.87;;;6.17;;
8986;SDS011;4529;51.360;12.474;2023-03-03T23:25:59;10.30;;;6.37;;
8986;SDS011;4529;51.360;12.474;2023-03-03T23:31:02;9.33;;;5.43;;
8986;SDS011;4529;51.360;12.474;2023-03-03T23:36:06;9.37;;;5.77;;
8986;SDS011;4529;51.360;12.474;2023-03-03T23:41:10;9.17;;;5.70;;
8986;SDS011;4529;51.360;12.474;2023-03-03T23:46:14;10.80;;;6.27;;
8986;SDS011;4529;51.360;12.474;2023-03-03T23:51:18;13.20;;;6.17;;
8986;SDS011;4529;51.360;12.474;2023-03-03T23:56:22;11.17;;;6.83;;
